createdAt,value
2023-03-18T02:56:46.534Z,40.44
2023-03-18T02:59:13.749Z,40.10
2023-03-18T03:01:43.640Z,40.57
2023-03-18T06:15:02.691Z,43.58
2023-03-18T08:12:53.264Z,33.30
2023-03-18T09:33:54.286Z,33.41
2023-03-18T09:36:54.564Z,34.85
2023-03-18T12:50:38.054Z,32.96
2023-03-18T12:53:50.180Z,33.89
2023-03-18T12:56:21.517Z,32.70
2023-03-18T12:58:55.989Z,32.95
2023-03-18T13:01:33.295Z,33.67
2023-03-18T15:58:38.520Z,37.56
2023-03-18T16:01:07.977Z,37.11
2023-03-18T17:14:59.030Z,38.63
2023-03-18T17:17:33.009Z,39.46
2023-03-18T17:20:02.619Z,39.39
2023-03-18T17:27:57.594Z,39.92
2023-03-18T17:30:33.747Z,39.94
2023-03-18T17:33:02.330Z,40.50
2023-03-18T17:35:29.785Z,40.63
2023-03-18T17:37:56.804Z,40.75
2023-03-18T17:40:27.917Z,42.21
2023-03-18T18:02:33.994Z,40.88
2023-03-18T18:05:00.682Z,40.98
2023-03-18T18:37:32.082Z,42.96
2023-03-18T18:40:26.792Z,42.55
2023-03-18T18:43:00.864Z,42.56
2023-03-18T18:45:30.368Z,42.05
2023-03-18T18:47:57.542Z,42.24
2023-03-18T19:20:27.976Z,44.48
2023-03-18T19:40:52.997Z,47.09
2023-03-18T19:43:21.766Z,46.84
2023-03-18T19:45:50.582Z,47.49
2023-03-18T19:48:21.342Z,46.66
2023-03-18T19:50:51.039Z,46.14
2023-03-18T19:55:56.010Z,47.31
2023-03-18T20:26:49.013Z,47.84
2023-03-18T20:43:57.198Z,49.96
2023-03-18T21:50:30.023Z,51.68
2023-03-18T21:52:57.115Z,52.04
2023-03-18T21:55:23.725Z,52.66
2023-03-18T21:57:50.470Z,53.50
2023-03-18T22:00:22.389Z,53.32
2023-03-18T22:11:17.893Z,53.07
2023-03-18T22:13:45.483Z,52.55
2023-03-18T22:16:17.363Z,52.94
2023-03-18T22:18:45.134Z,52.86
2023-03-18T22:21:17.631Z,53.31
2023-03-18T22:23:44.518Z,53.92
2023-03-18T22:26:16.525Z,53.22
2023-03-18T22:28:43.674Z,53.99
2023-03-18T22:31:19.380Z,54.31
2023-03-18T22:33:46.631Z,54.11
2023-03-18T22:36:17.593Z,53.75
2023-03-18T22:38:44.547Z,53.17
2023-03-18T22:41:21.122Z,53.54
2023-03-18T22:44:06.455Z,54.17
2023-03-18T22:46:33.071Z,54.57
2023-03-18T22:49:05.290Z,54.90
2023-03-18T22:51:36.372Z,54.73
2023-03-18T22:54:03.176Z,54.97
2023-03-18T22:56:32.163Z,54.81
2023-03-18T22:58:58.818Z,55.52
2023-03-18T23:01:29.840Z,55.53
2023-03-18T23:03:56.448Z,55.29
2023-03-18T23:06:27.223Z,55.87
2023-03-18T23:08:53.985Z,56.05
2023-03-18T23:11:20.782Z,55.76
2023-03-18T23:13:50.049Z,56.59
2023-03-18T23:16:20.489Z,56.30
2023-03-18T23:18:47.417Z,56.53
2023-03-18T23:21:22.173Z,56.35
2023-03-18T23:23:49.301Z,56.52
2023-03-18T23:26:16.813Z,56.38
2023-03-18T23:28:45.125Z,56.64
2023-03-18T23:31:13.387Z,57.57
2023-03-18T23:33:40.192Z,58.68
2023-03-18T23:36:07.531Z,59.40
2023-03-18T23:38:34.237Z,58.35
2023-03-18T23:41:00.991Z,59.45
2023-03-18T23:43:27.590Z,59.69
2023-03-18T23:45:59.554Z,59.14
2023-03-18T23:48:26.221Z,59.63
2023-03-18T23:50:55.278Z,60.71
2023-03-18T23:53:22.083Z,60.72
2023-03-18T23:55:49.372Z,59.94
2023-03-18T23:58:16.609Z,59.58
